createdAt,value
2023-04-04T00:02:01.890Z,14.70
2023-04-04T00:05:08.902Z,14.70
2023-04-04T00:08:11.390Z,14.70
2023-04-04T00:11:14.105Z,14.70
2023-04-04T00:14:16.526Z,14.60
2023-04-04T00:17:18.813Z,14.60
2023-04-04T00:20:21.203Z,14.60
2023-04-04T00:23:23.433Z,14.60
2023-04-04T00:26:26.893Z,14.60
2023-04-04T00:29:29.472Z,14.60
2023-04-04T00:32:32.633Z,14.60
2023-04-04T00:35:35.017Z,14.60
2023-04-04T00:38:37.830Z,14.60
2023-04-04T00:41:40.136Z,14.60
2023-04-04T00:44:42.312Z,14.60
2023-04-04T00:47:45.209Z,14.60
2023-04-04T00:50:47.520Z,14.60
2023-04-04T00:53:51.506Z,14.60
2023-04-04T00:56:55.726Z,14.60
2023-04-04T00:59:58.990Z,14.60
2023-04-04T01:03:01.499Z,14.50
2023-04-04T01:06:04.208Z,14.50
2023-04-04T01:09:06.573Z,14.50
2023-04-04T01:12:08.770Z,14.50
2023-04-04T01:15:11.653Z,14.50
2023-04-04T01:18:19.056Z,14.50
2023-04-04T01:21:23.200Z,14.50
2023-04-04T01:24:28.768Z,14.50
2023-04-04T01:27:35.310Z,14.50
2023-04-04T01:30:44.766Z,14.50
2023-04-04T01:34:07.005Z,14.50
2023-04-04T01:37:30.961Z,14.50
2023-04-04T01:40:38.622Z,14.40
2023-04-04T01:43:46.797Z,14.40
2023-04-04T01:46:55.195Z,14.40
2023-04-04T01:49:58.638Z,14.50
2023-04-04T01:53:01.055Z,14.50
2023-04-04T01:56:03.471Z,14.40
2023-04-04T01:59:07.812Z,14.40
2023-04-04T02:02:10.160Z,14.40
2023-04-04T02:05:12.781Z,14.40
2023-04-04T02:08:15.721Z,14.40
2023-04-04T02:11:26.087Z,14.40
2023-04-04T02:14:28.291Z,14.40
2023-04-04T02:17:30.988Z,14.40
2023-04-04T02:20:33.368Z,14.40
2023-04-04T02:23:35.578Z,14.40
2023-04-04T02:26:37.825Z,14.40
2023-04-04T02:29:41.385Z,14.40
2023-04-04T02:32:43.608Z,14.40
2023-04-04T02:35:49.731Z,14.30
2023-04-04T02:38:52.137Z,14.30
2023-04-04T02:41:56.594Z,14.30
2023-04-04T02:44:58.877Z,14.30
2023-04-04T02:48:01.888Z,14.30
2023-04-04T02:51:13.384Z,14.30
2023-04-04T02:54:16.269Z,14.30
2023-04-04T02:57:21.607Z,14.30
2023-04-04T03:00:23.934Z,14.30
2023-04-04T03:03:26.359Z,14.30
2023-04-04T03:06:33.197Z,14.30
2023-04-04T03:09:35.436Z,14.30
2023-04-04T03:12:37.737Z,14.30
2023-04-04T03:15:41.071Z,14.30
2023-04-04T03:18:44.941Z,14.30
2023-04-04T03:21:48.515Z,14.20
2023-04-04T03:24:51.427Z,14.30
2023-04-04T03:27:54.926Z,14.20
2023-04-04T03:31:07.310Z,14.20
2023-04-04T03:34:13.499Z,14.20
2023-04-04T03:37:15.778Z,14.20
2023-04-04T03:40:18.016Z,14.20
2023-04-04T03:43:20.152Z,14.20
2023-04-04T03:46:22.677Z,14.20
2023-04-04T03:49:25.381Z,14.20
2023-04-04T03:52:27.958Z,14.20
2023-04-04T03:55:30.120Z,14.20
2023-04-04T03:58:36.520Z,14.20
2023-04-04T04:01:38.924Z,14.20
2023-04-04T04:04:41.795Z,14.10
2023-04-04T04:07:45.662Z,14.20
2023-04-04T04:10:47.982Z,14.10
2023-04-04T04:13:50.202Z,14.10
2023-04-04T04:16:53.227Z,14.10
2023-04-04T04:19:57.605Z,14.10
2023-04-04T04:23:01.226Z,14.10
2023-04-04T04:26:05.436Z,14.10
2023-04-04T04:29:08.833Z,14.10
2023-04-04T04:32:18.579Z,14.10
2023-04-04T04:35:24.783Z,14.10
2023-04-04T04:38:29.225Z,14.10
2023-04-04T04:41:31.978Z,14.10
2023-04-04T04:44:35.929Z,14.10
2023-04-04T04:47:38.399Z,14.10
2023-04-04T04:50:47.362Z,14.10
2023-04-04T04:53:53.402Z,14.00
2023-04-04T04:56:56.255Z,14.00
2023-04-04T04:59:58.501Z,14.00
2023-04-04T05:03:02.638Z,14.00
2023-04-04T05:06:15.161Z,14.00
2023-04-04T05:09:17.450Z,13.90
2023-04-04T05:12:19.812Z,14.00
2023-04-04T05:15:29.483Z,13.90
2023-04-04T05:18:32.344Z,13.90
2023-04-04T05:21:35.035Z,13.90
2023-04-04T05:24:39.987Z,13.90
2023-04-04T05:27:42.913Z,13.90
2023-04-04T05:30:45.788Z,13.90
2023-04-04T05:33:52.633Z,13.90
2023-04-04T05:37:03.545Z,13.90
2023-04-04T05:40:08.445Z,13.90
2023-04-04T05:43:11.240Z,13.90
2023-04-04T05:46:24.911Z,13.90
2023-04-04T05:49:29.007Z,13.90
2023-04-04T05:52:34.184Z,13.90
2023-04-04T05:55:37.221Z,13.80
2023-04-04T05:58:39.840Z,13.90
2023-04-04T06:01:42.349Z,13.80
2023-04-04T06:04:48.643Z,13.80
2023-04-04T06:07:56.140Z,13.80
2023-04-04T06:10:58.393Z,13.80
2023-04-04T06:14:00.574Z,13.80
2023-04-04T06:17:03.937Z,13.80
2023-04-04T06:20:06.838Z,13.80
2023-04-04T06:23:10.413Z,13.80
2023-04-04T06:26:17.877Z,13.80
2023-04-04T06:29:21.737Z,13.80
2023-04-04T06:32:24.408Z,13.80
2023-04-04T06:35:26.672Z,13.80
2023-04-04T06:38:34.647Z,13.80
2023-04-04T06:41:41.091Z,13.80
2023-04-04T06:44:43.347Z,13.70
2023-04-04T06:47:46.033Z,13.70
2023-04-04T06:50:48.330Z,13.70
2023-04-04T06:53:52.733Z,13.70
2023-04-04T06:56:55.044Z,13.70
2023-04-04T06:59:57.438Z,13.70
2023-04-04T07:03:00.720Z,13.70
2023-04-04T07:06:04.744Z,13.70
2023-04-04T07:09:12.861Z,13.70
2023-04-04T07:12:21.304Z,13.70
2023-04-04T07:15:23.745Z,13.70
2023-04-04T07:18:25.962Z,13.70
2023-04-04T07:21:29.041Z,13.70
2023-04-04T07:24:31.284Z,13.70
2023-04-04T07:27:33.781Z,13.70
2023-04-04T07:30:35.971Z,13.70
2023-04-04T07:33:38.352Z,13.70
2023-04-04T07:36:40.765Z,13.70
2023-04-04T07:39:43.218Z,13.80
2023-04-04T07:42:46.402Z,13.80
2023-04-04T07:45:48.687Z,13.80
2023-04-04T07:48:50.902Z,13.80
2023-04-04T07:51:53.207Z,13.80
2023-04-04T07:54:55.479Z,13.80
2023-04-04T07:57:58.752Z,13.80
2023-04-04T08:01:01.931Z,13.80
2023-04-04T08:04:05.831Z,13.80
2023-04-04T08:07:08.112Z,13.80
2023-04-04T08:10:10.921Z,13.80
2023-04-04T08:13:13.425Z,13.90
2023-04-04T08:16:15.716Z,13.90
2023-04-04T08:19:18.041Z,13.90
2023-04-04T08:22:20.355Z,13.90
2023-04-04T08:25:23.155Z,13.90
2023-04-04T08:28:25.502Z,13.90
2023-04-04T08:31:28.451Z,14.00
2023-04-04T08:34:30.785Z,14.00
2023-04-04T08:37:33.322Z,14.00
2023-04-04T08:40:35.898Z,14.00
2023-04-04T08:43:41.407Z,14.00
2023-04-04T08:46:45.996Z,14.00
2023-04-04T08:49:49.786Z,14.00
2023-04-04T08:52:53.229Z,14.10
2023-04-04T08:55:58.206Z,14.10
2023-04-04T08:59:00.533Z,14.10
2023-04-04T09:02:34.761Z,14.10
2023-04-04T09:05:38.025Z,14.10
2023-04-04T09:08:41.725Z,14.10
2023-04-04T09:11:46.786Z,14.10
2023-04-04T09:14:52.272Z,14.10
2023-04-04T09:17:54.638Z,14.20
2023-04-04T09:20:56.863Z,14.20
2023-04-04T09:24:00.561Z,14.20
2023-04-04T09:27:03.573Z,14.20
2023-04-04T09:30:06.532Z,14.20
2023-04-04T09:33:11.555Z,14.20
2023-04-04T09:36:14.031Z,14.20
2023-04-04T09:39:20.929Z,14.30
2023-04-04T09:42:24.506Z,14.30
2023-04-04T09:45:32.342Z,14.30
2023-04-04T09:48:37.245Z,14.30
2023-04-04T09:51:41.543Z,14.30
2023-04-04T09:54:48.416Z,14.30
2023-04-04T09:57:50.973Z,14.30
2023-04-04T10:00:56.842Z,14.30
2023-04-04T10:03:59.483Z,14.30
2023-04-04T10:07:01.918Z,14.40
2023-04-04T10:10:09.237Z,14.40
2023-04-04T10:13:12.003Z,14.40
2023-04-04T10:16:15.600Z,14.40
2023-04-04T10:19:19.468Z,14.40
2023-04-04T10:22:22.513Z,14.40
2023-04-04T10:25:24.957Z,14.40
2023-04-04T10:28:28.386Z,14.40
2023-04-04T10:31:33.570Z,14.40
2023-04-04T10:34:49.984Z,14.40
2023-04-04T10:38:11.982Z,14.40
2023-04-04T10:44:58.378Z,14.40
2023-04-04T10:48:08.928Z,14.40
2023-04-04T10:51:15.008Z,14.40
2023-04-04T10:54:17.522Z,14.40
2023-04-04T10:57:20.199Z,14.40
2023-04-04T11:00:24.410Z,14.40
2023-04-04T11:03:26.704Z,14.40
2023-04-04T11:07:03.995Z,14.40
2023-04-04T11:10:15.500Z,14.40
2023-04-04T11:13:22.270Z,14.50
2023-04-04T11:16:25.083Z,14.50
2023-04-04T11:19:31.810Z,14.50
2023-04-04T11:22:36.580Z,14.40
2023-04-04T11:25:41.963Z,14.50
2023-04-04T11:28:46.331Z,14.40
2023-04-04T11:31:50.932Z,14.50
2023-04-04T11:34:53.161Z,14.50
2023-04-04T11:37:55.329Z,14.50
2023-04-04T11:53:45.001Z,14.50
2023-04-04T11:56:47.597Z,14.80
2023-04-04T11:59:51.103Z,14.80
2023-04-04T12:02:53.479Z,14.80
2023-04-04T12:05:57.295Z,14.80
2023-04-04T12:09:00.292Z,14.70
2023-04-04T12:12:03.630Z,14.70
2023-04-04T12:15:16.947Z,14.60
2023-04-04T12:18:23.511Z,14.60
2023-04-04T12:21:27.033Z,14.60
2023-04-04T12:24:29.298Z,14.60
2023-04-04T12:27:31.826Z,14.60
2023-04-04T12:30:34.896Z,14.50
2023-04-04T12:33:38.208Z,14.50
2023-04-04T12:36:41.544Z,14.50
2023-04-04T12:39:51.229Z,14.50
2023-04-04T12:42:53.944Z,14.50
2023-04-04T12:45:58.211Z,14.50
2023-04-04T12:49:01.168Z,14.50
2023-04-04T12:52:04.935Z,14.50
2023-04-04T12:55:09.999Z,14.50
2023-04-04T12:58:12.383Z,14.50
2023-04-04T13:01:16.008Z,14.50
2023-04-04T13:04:18.436Z,14.50
2023-04-04T13:07:25.462Z,14.50
2023-04-04T13:10:28.218Z,14.50
2023-04-04T13:13:41.496Z,14.50
2023-04-04T13:16:44.302Z,14.50
2023-04-04T13:19:46.698Z,14.40
2023-04-04T13:22:49.082Z,14.50
2023-04-04T13:25:51.618Z,14.40
2023-04-04T13:28:53.850Z,14.50
2023-04-04T13:31:56.722Z,14.50
2023-04-04T13:34:59.156Z,14.50
2023-04-04T13:38:01.663Z,14.50
2023-04-04T13:41:03.876Z,14.40
2023-04-04T13:44:06.189Z,14.40
2023-04-04T13:47:08.315Z,14.40
2023-04-04T13:50:10.757Z,14.40
2023-04-04T13:53:13.010Z,14.40
2023-04-04T13:56:18.758Z,14.40
2023-04-04T13:59:21.781Z,14.40
2023-04-04T14:02:24.768Z,14.40
2023-04-04T14:05:26.992Z,14.40
2023-04-04T14:08:31.055Z,14.40
2023-04-04T14:11:34.836Z,14.40
2023-04-04T14:14:37.933Z,14.40
2023-04-04T14:17:40.631Z,14.40
2023-04-04T14:20:42.914Z,14.40
2023-04-04T14:23:45.111Z,14.40
2023-04-04T14:26:47.320Z,14.40
2023-04-04T14:29:49.474Z,14.40
2023-04-04T14:32:52.321Z,14.40
2023-04-04T14:35:54.607Z,14.40
2023-04-04T14:38:57.014Z,14.40
2023-04-04T14:41:59.256Z,14.40
2023-04-04T14:45:05.293Z,14.40
2023-04-04T14:48:07.992Z,14.40
2023-04-04T14:51:10.279Z,14.40
2023-04-04T14:54:12.485Z,14.40
2023-04-04T14:57:15.026Z,14.40
2023-04-04T15:00:20.866Z,14.40
2023-04-04T15:03:23.053Z,14.40
2023-04-04T15:06:25.393Z,14.40
2023-04-04T15:09:28.655Z,14.40
2023-04-04T15:12:30.874Z,14.40
2023-04-04T15:15:33.436Z,14.40
2023-04-04T15:18:38.220Z,14.40
2023-04-04T15:21:40.794Z,14.40
2023-04-04T15:24:43.056Z,14.40
2023-04-04T15:27:45.311Z,14.40
2023-04-04T15:30:47.491Z,14.40
2023-04-04T15:33:49.706Z,14.50
2023-04-04T15:36:52.303Z,14.50
2023-04-04T15:39:54.872Z,14.50
2023-04-04T15:42:57.344Z,14.50
2023-04-04T15:45:59.646Z,14.50
2023-04-04T15:49:01.998Z,14.50
2023-04-04T15:52:04.417Z,14.50
2023-04-04T15:55:17.263Z,14.50
2023-04-04T15:58:19.643Z,14.50
2023-04-04T16:01:22.562Z,14.60
2023-04-04T16:04:24.826Z,14.50
2023-04-04T16:07:27.062Z,14.50
2023-04-04T16:10:29.354Z,14.60
2023-04-04T16:13:31.583Z,14.50
2023-04-04T16:16:33.754Z,14.50
2023-04-04T16:19:36.029Z,14.50
2023-04-04T16:22:38.213Z,14.50
2023-04-04T16:25:40.933Z,14.50
2023-04-04T16:28:44.393Z,14.50
2023-04-04T16:31:48.838Z,14.50
2023-04-04T16:34:51.099Z,14.50
2023-04-04T16:37:54.117Z,14.60
2023-04-04T16:40:59.627Z,14.50
2023-04-04T16:44:02.053Z,14.50
2023-04-04T16:47:04.385Z,14.50
2023-04-04T16:50:08.122Z,14.50
2023-04-04T16:53:11.044Z,14.50
2023-04-04T16:56:13.254Z,14.50
2023-04-04T16:59:17.231Z,14.50
2023-04-04T17:02:21.185Z,14.50
2023-04-04T17:05:25.676Z,14.50
2023-04-04T17:08:28.617Z,14.50
2023-04-04T17:11:31.234Z,14.50
2023-04-04T17:14:33.674Z,14.50
2023-04-04T17:17:36.101Z,14.50
2023-04-04T17:20:38.729Z,14.50
2023-04-04T17:23:41.123Z,14.50
2023-04-04T17:26:43.387Z,14.50
2023-04-04T17:29:45.893Z,14.50
2023-04-04T17:32:49.148Z,14.50
2023-04-04T17:35:51.673Z,14.50
2023-04-04T17:38:53.826Z,14.50
2023-04-04T17:41:56.531Z,14.50
2023-04-04T17:44:59.202Z,14.50
2023-04-04T17:48:01.385Z,14.50
2023-04-04T17:51:06.970Z,14.50
2023-04-04T17:54:10.428Z,14.50
2023-04-04T17:57:12.653Z,14.50
2023-04-04T18:00:16.066Z,14.40
2023-04-04T18:03:20.813Z,14.50
2023-04-04T18:06:24.103Z,14.50
2023-04-04T18:09:26.756Z,14.40
2023-04-04T18:12:30.407Z,14.40
2023-04-04T18:15:33.947Z,14.40
2023-04-04T18:18:36.233Z,14.40
2023-04-04T18:21:39.221Z,14.40
2023-04-04T18:24:41.401Z,14.40
2023-04-04T18:27:43.708Z,14.40
2023-04-04T18:30:45.987Z,14.40
2023-04-04T18:33:49.941Z,14.40
2023-04-04T18:36:52.211Z,14.40
2023-04-04T18:39:54.414Z,14.40
2023-04-04T18:42:56.935Z,14.40
2023-04-04T18:45:59.810Z,14.40
2023-04-04T18:49:01.987Z,14.40
2023-04-04T18:52:04.588Z,14.40
2023-04-04T18:55:07.645Z,14.40
2023-04-04T18:58:09.825Z,14.40
2023-04-04T19:01:12.729Z,14.40
2023-04-04T19:04:20.159Z,14.40
2023-04-04T19:07:26.717Z,14.40
2023-04-04T19:10:29.606Z,14.40
2023-04-04T19:13:31.945Z,14.40
2023-04-04T19:16:34.189Z,14.40
2023-04-04T19:19:36.434Z,14.40
2023-04-04T19:22:38.714Z,14.30
2023-04-04T19:25:41.283Z,14.40
2023-04-04T19:28:45.666Z,14.30
2023-04-04T19:31:48.009Z,14.30
2023-04-04T19:34:50.281Z,14.30
2023-04-04T19:37:52.445Z,14.30
2023-04-04T19:41:28.040Z,14.30
2023-04-04T19:44:31.455Z,14.30
2023-04-04T19:47:33.709Z,14.30
2023-04-04T19:50:38.232Z,14.30
2023-04-04T19:53:41.035Z,14.30
2023-04-04T19:56:46.585Z,14.30
2023-04-04T19:59:59.572Z,14.30
2023-04-04T20:03:07.591Z,14.30
2023-04-04T20:06:12.191Z,14.30
2023-04-04T20:09:40.262Z,14.30
2023-04-04T20:12:42.497Z,14.30
2023-04-04T20:15:47.849Z,14.30
2023-04-04T20:18:50.308Z,14.30
2023-04-04T20:21:52.557Z,14.30
2023-04-04T20:24:54.764Z,14.30
2023-04-04T20:27:58.161Z,14.20
2023-04-04T20:31:03.360Z,14.20
2023-04-04T20:34:07.588Z,14.20
2023-04-04T20:37:25.175Z,14.20
2023-04-04T20:40:39.963Z,14.20
2023-04-04T20:43:48.346Z,14.20
2023-04-04T20:46:50.907Z,14.20
2023-04-04T20:49:53.128Z,14.20
2023-04-04T20:53:06.436Z,14.20
2023-04-04T20:56:31.013Z,14.20
2023-04-04T20:59:36.754Z,14.20
2023-04-04T21:02:40.083Z,14.20
2023-04-04T21:05:42.473Z,14.20
2023-04-04T21:08:50.681Z,14.20
2023-04-04T21:11:53.200Z,14.20
2023-04-04T21:14:55.506Z,14.20
2023-04-04T21:18:06.621Z,14.20
2023-04-04T21:21:13.060Z,14.20
2023-04-04T21:24:16.749Z,14.20
2023-04-04T21:27:35.144Z,14.20
2023-04-04T21:30:44.349Z,14.10
2023-04-04T21:33:48.326Z,14.10
2023-04-04T21:36:52.270Z,14.10
2023-04-04T21:39:57.297Z,14.10
2023-04-04T21:42:59.488Z,14.10
2023-04-04T21:46:01.750Z,14.10
2023-04-04T21:49:05.582Z,14.10
2023-04-04T21:52:07.830Z,14.10
2023-04-04T21:55:10.244Z,14.10
2023-04-04T21:58:13.259Z,14.10
2023-04-04T22:01:15.516Z,14.10
2023-04-04T22:04:17.907Z,14.10
2023-04-04T22:07:20.281Z,14.00
2023-04-04T22:10:23.384Z,14.10
2023-04-04T22:13:33.994Z,14.00
2023-04-04T22:16:40.237Z,14.00
2023-04-04T22:19:43.011Z,14.00
2023-04-04T22:22:46.068Z,14.00
2023-04-04T22:25:48.286Z,14.00
2023-04-04T22:28:50.507Z,14.00
2023-04-04T22:31:52.882Z,14.00
2023-04-04T22:34:55.131Z,14.00
2023-04-04T22:38:01.066Z,14.00
2023-04-04T22:41:03.483Z,14.00
2023-04-04T22:44:05.735Z,14.00
2023-04-04T22:47:08.261Z,14.00
2023-04-04T22:50:10.466Z,13.90
2023-04-04T22:53:15.407Z,13.90
2023-04-04T22:56:17.602Z,14.00
2023-04-04T22:59:19.885Z,14.00
2023-04-04T23:02:22.114Z,13.90
2023-04-04T23:05:24.811Z,13.90
2023-04-04T23:08:27.044Z,13.90
2023-04-04T23:11:29.289Z,13.90
2023-04-04T23:14:31.583Z,13.90
2023-04-04T23:17:34.831Z,13.90
2023-04-04T23:20:37.447Z,13.90
2023-04-04T23:23:39.682Z,13.90
2023-04-04T23:26:42.008Z,13.90
2023-04-04T23:29:44.262Z,13.90
2023-04-04T23:32:46.533Z,13.90
2023-04-04T23:35:48.864Z,13.90
2023-04-04T23:38:51.027Z,13.80
2023-04-04T23:41:53.521Z,13.90
2023-04-04T23:44:55.775Z,13.80
2023-04-04T23:47:58.070Z,13.80
2023-04-04T23:51:02.007Z,13.80
2023-04-04T23:54:12.354Z,13.80
2023-04-04T23:57:14.509Z,13.80
